sensor_id;sensor_type;location;lat;lon;timestamp;P1;durP1;ratioP1;P2;durP2;ratioP2
76393;SDS011;65216;51.090;-115.352;2023-02-11T00:01:31;12.80;;;1.60;;
76393;SDS011;65216;51.090;-115.352;2023-02-11T00:04:03;9.30;;;1.30;;
76393;SDS011;65216;51.090;-115.352;2023-02-11T00:06:34;12.70;;;1.30;;
76393;SDS011;65216;51.090;-115.352;2023-02-11T00:09:05;13.70;;;1.30;;
76393;SDS011;65216;51.090;-115.352;2023-02-11T00:11:36;13.10;;;1.30;;
76393;SDS011;65216;51.090;-115.352;2023-02-11T00:14:06;16.80;;;1.60;;
76393;SDS011;65216;51.090;-115.352;2023-02-11T00:16:35;14.70;;;1.50;;
76393;SDS011;65216;51.090;-115.352;2023-02-11T00:19:05;14.50;;;1.30;;
76393;SDS011;65216;51.090;-115.352;2023-02-11T00:21:35;10.80;;;1.40;;
76393;SDS011;65216;51.090;-115.352;2023-02-11T00:24:02;12.60;;;1.40;;
76393;SDS011;65216;51.090;-115.352;2023-02-11T00:26:36;14.30;;;1.50;;
76393;SDS011;65216;51.090;-115.352;2023-02-11T00:29:04;26.70;;;2.50;;
76393;SDS011;65216;51.090;-115.352;2023-02-11T00:31:32;17.60;;;1.80;;
76393;SDS011;65216;51.090;-115.352;2023-02-11T00:34:00;14.80;;;1.90;;
76393;SDS011;65216;51.090;-115.352;2023-02-11T00:36:28;12.70;;;1.70;;
76393;SDS011;65216;51.090;-115.352;2023-02-11T00:38:57;16.20;;;2.00;;
76393;SDS011;65216;51.090;-115.352;2023-02-11T00:41:25;10.60;;;1.80;;
76393;SDS011;65216;51.090;-115.352;2023-02-11T00:43:52;15.10;;;1.80;;
76393;SDS011;65216;51.090;-115.352;2023-02-11T00:46:20;16.40;;;1.70;;
76393;SDS011;65216;51.090;-115.352;2023-02-11T00:48:49;15.60;;;1.70;;
76393;SDS011;65216;51.090;-115.352;2023-02-11T00:51:18;17.30;;;1.50;;
76393;SDS011;65216;51.090;-115.352;2023-02-11T00:53:48;18.30;;;1.80;;
76393;SDS011;65216;51.090;-115.352;2023-02-11T00:56:15;17.00;;;1.70;;
76393;SDS011;65216;51.090;-115.352;2023-02-11T00:58:43;13.90;;;1.80;;
76393;SDS011;65216;51.090;-115.352;2023-02-11T01:01:10;18.20;;;1.60;;
76393;SDS011;65216;51.090;-115.352;2023-02-11T01:03:39;10.40;;;1.40;;
76393;SDS011;65216;51.090;-115.352;2023-02-11T01:06:08;7.80;;;1.10;;
76393;SDS011;65216;51.090;-115.352;2023-02-11T01:08:38;14.80;;;1.50;;
76393;SDS011;65216;51.090;-115.352;2023-02-11T01:11:13;14.60;;;1.60;;
76393;SDS011;65216;51.090;-115.352;2023-02-11T01:13:46;19.20;;;1.80;;
76393;SDS011;65216;51.090;-115.352;2023-02-11T01:16:15;16.30;;;2.10;;
76393;SDS011;65216;51.090;-115.352;2023-02-11T01:18:43;15.80;;;1.40;;
76393;SDS011;65216;51.090;-115.352;2023-02-11T01:21:13;12.90;;;1.50;;
76393;SDS011;65216;51.090;-115.352;2023-02-11T01:23:41;11.30;;;1.70;;
76393;SDS011;65216;51.090;-115.352;2023-02-11T01:26:09;11.90;;;1.40;;
76393;SDS011;65216;51.090;-115.352;2023-02-11T01:28:39;12.80;;;1.40;;
76393;SDS011;65216;51.090;-115.352;2023-02-11T01:31:08;10.90;;;1.30;;
76393;SDS011;65216;51.090;-115.352;2023-02-11T01:33:36;20.00;;;1.90;;
76393;SDS011;65216;51.090;-115.352;2023-02-11T01:36:06;15.90;;;1.60;;
76393;SDS011;65216;51.090;-115.352;2023-02-11T01:38:35;11.50;;;1.40;;
76393;SDS011;65216;51.090;-115.352;2023-02-11T01:41:09;17.70;;;1.50;;
76393;SDS011;65216;51.090;-115.352;2023-02-11T01:43:46;13.90;;;1.40;;
76393;SDS011;65216;51.090;-115.352;2023-02-11T01:46:36;15.50;;;1.80;;
76393;SDS011;65216;51.090;-115.352;2023-02-11T01:51:37;20.40;;;1.90;;
76393;SDS011;65216;51.090;-115.352;2023-02-11T01:54:12;16.50;;;1.70;;
76393;SDS011;65216;51.090;-115.352;2023-02-11T01:57:02;15.10;;;1.90;;
76393;SDS011;65216;51.090;-115.352;2023-02-11T02:00:14;18.30;;;2.00;;
76393;SDS011;65216;51.090;-115.352;2023-02-11T02:05:54;18.40;;;2.10;;
76393;SDS011;65216;51.090;-115.352;2023-02-11T02:08:54;16.70;;;2.10;;
76393;SDS011;65216;51.090;-115.352;2023-02-11T02:11:32;23.90;;;2.10;;
76393;SDS011;65216;51.090;-115.352;2023-02-11T02:14:03;15.00;;;1.90;;
76393;SDS011;65216;51.090;-115.352;2023-02-11T02:16:41;14.00;;;1.90;;
76393;SDS011;65216;51.090;-115.352;2023-02-11T02:19:34;15.90;;;1.90;;
76393;SDS011;65216;51.090;-115.352;2023-02-11T02:25:50;18.50;;;2.00;;
76393;SDS011;65216;51.090;-115.352;2023-02-11T02:35:38;21.80;;;2.20;;
76393;SDS011;65216;51.090;-115.352;2023-02-11T02:41:16;22.60;;;2.20;;
76393;SDS011;65216;51.090;-115.352;2023-02-11T02:43:50;30.60;;;2.70;;
76393;SDS011;65216;51.090;-115.352;2023-02-11T02:46:23;32.50;;;2.80;;
76393;SDS011;65216;51.090;-115.352;2023-02-11T02:48:57;19.40;;;2.40;;
76393;SDS011;65216;51.090;-115.352;2023-02-11T02:52:01;20.20;;;2.20;;
76393;SDS011;65216;51.090;-115.352;2023-02-11T02:58:03;22.70;;;2.40;;
76393;SDS011;65216;51.090;-115.352;2023-02-11T03:06:54;21.80;;;2.20;;
76393;SDS011;65216;51.090;-115.352;2023-02-11T03:09:43;19.80;;;2.40;;
76393;SDS011;65216;51.090;-115.352;2023-02-11T03:12:27;15.10;;;2.20;;
76393;SDS011;65216;51.090;-115.352;2023-02-11T03:14:58;23.70;;;2.50;;
76393;SDS011;65216;51.090;-115.352;2023-02-11T03:17:33;21.50;;;2.30;;
76393;SDS011;65216;51.090;-115.352;2023-02-11T03:20:06;24.10;;;3.00;;
76393;SDS011;65216;51.090;-115.352;2023-02-11T03:22:55;23.70;;;2.60;;
76393;SDS011;65216;51.090;-115.352;2023-02-11T03:25:41;30.30;;;2.90;;
76393;SDS011;65216;51.090;-115.352;2023-02-11T03:28:34;29.20;;;3.10;;
76393;SDS011;65216;51.090;-115.352;2023-02-11T03:31:13;20.10;;;2.70;;
76393;SDS011;65216;51.090;-115.352;2023-02-11T03:34:00;19.20;;;2.70;;
76393;SDS011;65216;51.090;-115.352;2023-02-11T03:41:51;28.40;;;2.60;;
76393;SDS011;65216;51.090;-115.352;2023-02-11T03:44:25;27.50;;;3.30;;
76393;SDS011;65216;51.090;-115.352;2023-02-11T03:46:56;25.00;;;2.40;;
76393;SDS011;65216;51.090;-115.352;2023-02-11T03:49:26;20.10;;;2.40;;
76393;SDS011;65216;51.090;-115.352;2023-02-11T03:51:55;22.20;;;2.20;;
76393;SDS011;65216;51.090;-115.352;2023-02-11T03:54:30;26.10;;;2.90;;
76393;SDS011;65216;51.090;-115.352;2023-02-11T03:57:02;23.10;;;2.60;;
76393;SDS011;65216;51.090;-115.352;2023-02-11T03:59:29;17.60;;;2.00;;
76393;SDS011;65216;51.090;-115.352;2023-02-11T04:01:59;28.50;;;2.50;;
76393;SDS011;65216;51.090;-115.352;2023-02-11T04:04:30;11.70;;;1.60;;
76393;SDS011;65216;51.090;-115.352;2023-02-11T04:06:57;17.40;;;2.20;;
76393;SDS011;65216;51.090;-115.352;2023-02-11T04:09:25;17.30;;;1.80;;
76393;SDS011;65216;51.090;-115.352;2023-02-11T04:11:55;20.70;;;2.20;;
76393;SDS011;65216;51.090;-115.352;2023-02-11T04:14:22;20.30;;;2.10;;
76393;SDS011;65216;51.090;-115.352;2023-02-11T04:16:49;17.60;;;1.90;;
76393;SDS011;65216;51.090;-115.352;2023-02-11T04:19:17;18.70;;;2.10;;
76393;SDS011;65216;51.090;-115.352;2023-02-11T04:21:44;17.30;;;2.10;;
76393;SDS011;65216;51.090;-115.352;2023-02-11T04:24:12;15.60;;;1.80;;
76393;SDS011;65216;51.090;-115.352;2023-02-11T04:26:39;22.20;;;2.20;;
76393;SDS011;65216;51.090;-115.352;2023-02-11T04:29:07;24.30;;;2.10;;
76393;SDS011;65216;51.090;-115.352;2023-02-11T04:31:34;12.50;;;1.50;;
76393;SDS011;65216;51.090;-115.352;2023-02-11T04:34:01;16.70;;;1.90;;
76393;SDS011;65216;51.090;-115.352;2023-02-11T04:36:29;18.40;;;2.30;;
76393;SDS011;65216;51.090;-115.352;2023-02-11T04:38:56;14.30;;;1.70;;
76393;SDS011;65216;51.090;-115.352;2023-02-11T04:41:24;21.80;;;2.30;;
76393;SDS011;65216;51.090;-115.352;2023-02-11T04:43:51;18.20;;;1.70;;
76393;SDS011;65216;51.090;-115.352;2023-02-11T04:46:18;17.80;;;2.00;;
76393;SDS011;65216;51.090;-115.352;2023-02-11T04:48:46;15.70;;;1.50;;
76393;SDS011;65216;51.090;-115.352;2023-02-11T04:51:13;21.00;;;2.10;;
76393;SDS011;65216;51.090;-115.352;2023-02-11T04:53:41;10.50;;;1.60;;
76393;SDS011;65216;51.090;-115.352;2023-02-11T04:56:11;17.20;;;1.80;;
76393;SDS011;65216;51.090;-115.352;2023-02-11T04:58:39;9.60;;;1.30;;
76393;SDS011;65216;51.090;-115.352;2023-02-11T05:01:13;10.80;;;1.30;;
76393;SDS011;65216;51.090;-115.352;2023-02-11T05:03:44;9.10;;;1.00;;
76393;SDS011;65216;51.090;-115.352;2023-02-11T05:06:15;6.90;;;1.00;;
76393;SDS011;65216;51.090;-115.352;2023-02-11T05:08:46;12.70;;;1.10;;
76393;SDS011;65216;51.090;-115.352;2023-02-11T05:11:17;11.40;;;0.90;;
76393;SDS011;65216;51.090;-115.352;2023-02-11T05:13:48;8.20;;;0.90;;
76393;SDS011;65216;51.090;-115.352;2023-02-11T05:16:16;9.00;;;0.90;;
76393;SDS011;65216;51.090;-115.352;2023-02-11T05:18:44;7.70;;;0.80;;
76393;SDS011;65216;51.090;-115.352;2023-02-11T05:21:17;4.90;;;0.80;;
76393;SDS011;65216;51.090;-115.352;2023-02-11T05:23:48;4.50;;;0.60;;
76393;SDS011;65216;51.090;-115.352;2023-02-11T05:26:21;3.60;;;0.60;;
76393;SDS011;65216;51.090;-115.352;2023-02-11T05:28:48;7.40;;;0.80;;
76393;SDS011;65216;51.090;-115.352;2023-02-11T05:31:16;2.80;;;0.60;;
76393;SDS011;65216;51.090;-115.352;2023-02-11T05:33:45;3.70;;;0.50;;
76393;SDS011;65216;51.090;-115.352;2023-02-11T05:36:15;2.40;;;0.70;;
76393;SDS011;65216;51.090;-115.352;2023-02-11T05:38:42;3.20;;;0.60;;
76393;SDS011;65216;51.090;-115.352;2023-02-11T05:41:11;1.70;;;0.60;;
76393;SDS011;65216;51.090;-115.352;2023-02-11T05:43:38;3.60;;;0.40;;
76393;SDS011;65216;51.090;-115.352;2023-02-11T05:46:06;5.70;;;0.60;;
76393;SDS011;65216;51.090;-115.352;2023-02-11T05:48:34;4.00;;;0.30;;
76393;SDS011;65216;51.090;-115.352;2023-02-11T05:51:01;3.10;;;0.80;;
76393;SDS011;65216;51.090;-115.352;2023-02-11T05:53:28;1.90;;;0.40;;
76393;SDS011;65216;51.090;-115.352;2023-02-11T05:55:56;1.40;;;0.20;;
76393;SDS011;65216;51.090;-115.352;2023-02-11T05:58:23;2.70;;;0.40;;
76393;SDS011;65216;51.090;-115.352;2023-02-11T06:00:54;2.60;;;0.30;;
76393;SDS011;65216;51.090;-115.352;2023-02-11T06:03:22;2.60;;;0.30;;
76393;SDS011;65216;51.090;-115.352;2023-02-11T06:05:49;1.20;;;0.30;;
76393;SDS011;65216;51.090;-115.352;2023-02-11T06:08:16;1.30;;;0.30;;
76393;SDS011;65216;51.090;-115.352;2023-02-11T06:10:47;1.50;;;0.20;;
76393;SDS011;65216;51.090;-115.352;2023-02-11T06:13:14;3.30;;;0.30;;
76393;SDS011;65216;51.090;-115.352;2023-02-11T06:15:43;0.90;;;0.20;;
76393;SDS011;65216;51.090;-115.352;2023-02-11T06:18:11;0.90;;;0.30;;
76393;SDS011;65216;51.090;-115.352;2023-02-11T06:20:38;0.70;;;0.10;;
76393;SDS011;65216;51.090;-115.352;2023-02-11T06:23:09;2.00;;;0.20;;
76393;SDS011;65216;51.090;-115.352;2023-02-11T06:25:36;0.20;;;0.20;;
76393;SDS011;65216;51.090;-115.352;2023-02-11T06:28:03;0.50;;;0.20;;
76393;SDS011;65216;51.090;-115.352;2023-02-11T06:30:31;1.40;;;0.20;;
76393;SDS011;65216;51.090;-115.352;2023-02-11T06:33:01;0.80;;;0.30;;
76393;SDS011;65216;51.090;-115.352;2023-02-11T06:35:29;0.70;;;0.10;;
76393;SDS011;65216;51.090;-115.352;2023-02-11T06:37:58;0.70;;;0.10;;
76393;SDS011;65216;51.090;-115.352;2023-02-11T06:40:26;0.80;;;0.10;;
76393;SDS011;65216;51.090;-115.352;2023-02-11T06:42:53;0.50;;;0.20;;
76393;SDS011;65216;51.090;-115.352;2023-02-11T06:45:21;0.10;;;0.00;;
76393;SDS011;65216;51.090;-115.352;2023-02-11T06:47:52;0.40;;;0.10;;
76393;SDS011;65216;51.090;-115.352;2023-02-11T06:50:22;3.40;;;0.50;;
76393;SDS011;65216;51.090;-115.352;2023-02-11T06:52:53;2.10;;;0.30;;
76393;SDS011;65216;51.090;-115.352;2023-02-11T06:55:24;0.50;;;0.20;;
76393;SDS011;65216;51.090;-115.352;2023-02-11T06:57:51;1.60;;;0.30;;
76393;SDS011;65216;51.090;-115.352;2023-02-11T07:00:18;0.60;;;0.20;;
76393;SDS011;65216;51.090;-115.352;2023-02-11T07:02:49;4.00;;;0.60;;
76393;SDS011;65216;51.090;-115.352;2023-02-11T07:05:16;2.30;;;0.40;;
76393;SDS011;65216;51.090;-115.352;2023-02-11T07:07:46;2.80;;;0.70;;
76393;SDS011;65216;51.090;-115.352;2023-02-11T07:10:14;0.80;;;0.30;;
76393;SDS011;65216;51.090;-115.352;2023-02-11T07:12:44;1.70;;;0.20;;
76393;SDS011;65216;51.090;-115.352;2023-02-11T07:15:12;2.20;;;0.20;;
76393;SDS011;65216;51.090;-115.352;2023-02-11T07:17:39;1.00;;;0.20;;
76393;SDS011;65216;51.090;-115.352;2023-02-11T07:20:07;2.70;;;0.40;;
76393;SDS011;65216;51.090;-115.352;2023-02-11T07:22:37;0.70;;;0.30;;
76393;SDS011;65216;51.090;-115.352;2023-02-11T07:25:15;2.50;;;0.40;;
76393;SDS011;65216;51.090;-115.352;2023-02-11T07:27:42;1.80;;;0.30;;
76393;SDS011;65216;51.090;-115.352;2023-02-11T07:30:19;2.00;;;0.40;;
76393;SDS011;65216;51.090;-115.352;2023-02-11T07:32:48;1.70;;;0.50;;
76393;SDS011;65216;51.090;-115.352;2023-02-11T07:35:16;1.20;;;0.40;;
76393;SDS011;65216;51.090;-115.352;2023-02-11T07:37:44;1.80;;;0.40;;
76393;SDS011;65216;51.090;-115.352;2023-02-11T07:40:11;1.00;;;0.20;;
76393;SDS011;65216;51.090;-115.352;2023-02-11T07:42:39;2.20;;;0.50;;
76393;SDS011;65216;51.090;-115.352;2023-02-11T07:45:16;1.90;;;0.20;;
76393;SDS011;65216;51.090;-115.352;2023-02-11T07:47:44;3.60;;;0.70;;
76393;SDS011;65216;51.090;-115.352;2023-02-11T07:50:11;4.70;;;0.60;;
76393;SDS011;65216;51.090;-115.352;2023-02-11T07:52:40;1.30;;;0.40;;
76393;SDS011;65216;51.090;-115.352;2023-02-11T07:55:07;1.70;;;0.50;;
76393;SDS011;65216;51.090;-115.352;2023-02-11T07:57:36;4.80;;;0.60;;
76393;SDS011;65216;51.090;-115.352;2023-02-11T08:00:05;3.80;;;0.40;;
76393;SDS011;65216;51.090;-115.352;2023-02-11T08:02:37;4.40;;;0.50;;
76393;SDS011;65216;51.090;-115.352;2023-02-11T08:05:07;2.10;;;0.60;;
76393;SDS011;65216;51.090;-115.352;2023-02-11T08:07:37;1.90;;;0.50;;
76393;SDS011;65216;51.090;-115.352;2023-02-11T08:10:05;1.70;;;0.40;;
76393;SDS011;65216;51.090;-115.352;2023-02-11T08:12:34;3.50;;;0.50;;
76393;SDS011;65216;51.090;-115.352;2023-02-11T08:15:01;1.90;;;0.40;;
76393;SDS011;65216;51.090;-115.352;2023-02-11T08:17:31;2.90;;;0.40;;
76393;SDS011;65216;51.090;-115.352;2023-02-11T08:20:01;2.30;;;0.50;;
76393;SDS011;65216;51.090;-115.352;2023-02-11T08:22:34;2.90;;;0.20;;
76393;SDS011;65216;51.090;-115.352;2023-02-11T08:25:07;2.00;;;0.20;;
76393;SDS011;65216;51.090;-115.352;2023-02-11T08:27:37;5.20;;;0.50;;
76393;SDS011;65216;51.090;-115.352;2023-02-11T08:30:05;1.50;;;0.30;;
76393;SDS011;65216;51.090;-115.352;2023-02-11T08:32:34;2.00;;;0.30;;
76393;SDS011;65216;51.090;-115.352;2023-02-11T08:35:01;2.50;;;0.40;;
76393;SDS011;65216;51.090;-115.352;2023-02-11T08:37:29;2.00;;;0.30;;
76393;SDS011;65216;51.090;-115.352;2023-02-11T08:39:59;1.50;;;0.40;;
76393;SDS011;65216;51.090;-115.352;2023-02-11T08:42:27;1.00;;;0.50;;
76393;SDS011;65216;51.090;-115.352;2023-02-11T08:44:54;3.10;;;0.50;;
76393;SDS011;65216;51.090;-115.352;2023-02-11T08:47:26;2.10;;;0.50;;
76393;SDS011;65216;51.090;-115.352;2023-02-11T08:52:23;1.50;;;0.20;;
76393;SDS011;65216;51.090;-115.352;2023-02-11T08:54:51;0.70;;;0.20;;
76393;SDS011;65216;51.090;-115.352;2023-02-11T08:57:18;1.80;;;0.20;;
76393;SDS011;65216;51.090;-115.352;2023-02-11T08:59:45;0.30;;;0.10;;
76393;SDS011;65216;51.090;-115.352;2023-02-11T09:02:16;2.50;;;0.30;;
76393;SDS011;65216;51.090;-115.352;2023-02-11T09:04:43;0.40;;;0.20;;
76393;SDS011;65216;51.090;-115.352;2023-02-11T09:07:11;3.00;;;0.50;;
76393;SDS011;65216;51.090;-115.352;2023-02-11T09:09:38;1.60;;;0.30;;
76393;SDS011;65216;51.090;-115.352;2023-02-11T09:12:06;1.10;;;0.40;;
76393;SDS011;65216;51.090;-115.352;2023-02-11T09:14:33;1.40;;;0.60;;
76393;SDS011;65216;51.090;-115.352;2023-02-11T09:17:03;1.60;;;0.50;;
76393;SDS011;65216;51.090;-115.352;2023-02-11T09:19:37;1.60;;;0.70;;
76393;SDS011;65216;51.090;-115.352;2023-02-11T09:22:04;1.50;;;0.30;;
76393;SDS011;65216;51.090;-115.352;2023-02-11T09:24:32;3.20;;;0.50;;
76393;SDS011;65216;51.090;-115.352;2023-02-11T09:27:02;2.10;;;0.40;;
76393;SDS011;65216;51.090;-115.352;2023-02-11T09:29:32;1.80;;;0.30;;
76393;SDS011;65216;51.090;-115.352;2023-02-11T09:31:59;1.90;;;0.40;;
76393;SDS011;65216;51.090;-115.352;2023-02-11T09:34:27;2.40;;;0.50;;
76393;SDS011;65216;51.090;-115.352;2023-02-11T09:36:54;1.40;;;0.50;;
76393;SDS011;65216;51.090;-115.352;2023-02-11T09:39:21;0.50;;;0.20;;
76393;SDS011;65216;51.090;-115.352;2023-02-11T09:44:46;0.60;;;0.40;;
76393;SDS011;65216;51.090;-115.352;2023-02-11T09:47:33;0.90;;;0.30;;
76393;SDS011;65216;51.090;-115.352;2023-02-11T09:50:15;0.70;;;0.30;;
76393;SDS011;65216;51.090;-115.352;2023-02-11T09:55:58;0.80;;;0.20;;
76393;SDS011;65216;51.090;-115.352;2023-02-11T10:06:55;0.60;;;0.00;;
76393;SDS011;65216;51.090;-115.352;2023-02-11T10:10:09;0.40;;;0.10;;
76393;SDS011;65216;51.090;-115.352;2023-02-11T10:15:41;1.20;;;0.30;;
76393;SDS011;65216;51.090;-115.352;2023-02-11T10:21:41;0.80;;;0.40;;
76393;SDS011;65216;51.090;-115.352;2023-02-11T10:24:26;0.80;;;0.10;;
76393;SDS011;65216;51.090;-115.352;2023-02-11T10:27:01;0.10;;;0.10;;
76393;SDS011;65216;51.090;-115.352;2023-02-11T10:29:54;0.10;;;0.10;;
76393;SDS011;65216;51.090;-115.352;2023-02-11T10:35:20;0.70;;;0.20;;
76393;SDS011;65216;51.090;-115.352;2023-02-11T10:37:49;0.40;;;0.20;;
76393;SDS011;65216;51.090;-115.352;2023-02-11T10:40:18;0.30;;;0.10;;
76393;SDS011;65216;51.090;-115.352;2023-02-11T10:42:51;0.80;;;0.10;;
76393;SDS011;65216;51.090;-115.352;2023-02-11T10:45:59;1.20;;;0.20;;
76393;SDS011;65216;51.090;-115.352;2023-02-11T10:51:28;1.40;;;0.20;;
76393;SDS011;65216;51.090;-115.352;2023-02-11T10:59:20;0.60;;;0.20;;
76393;SDS011;65216;51.090;-115.352;2023-02-11T11:02:29;0.10;;;0.10;;
76393;SDS011;65216;51.090;-115.352;2023-02-11T11:05:06;0.50;;;0.10;;
76393;SDS011;65216;51.090;-115.352;2023-02-11T11:07:56;0.40;;;0.10;;
76393;SDS011;65216;51.090;-115.352;2023-02-11T11:10:39;0.00;;;0.00;;
76393;SDS011;65216;51.090;-115.352;2023-02-11T11:13:33;0.70;;;0.20;;
76393;SDS011;65216;51.090;-115.352;2023-02-11T11:19:20;1.00;;;0.00;;
76393;SDS011;65216;51.090;-115.352;2023-02-11T11:21:54;0.60;;;0.20;;
76393;SDS011;65216;51.090;-115.352;2023-02-11T11:24:26;0.40;;;0.20;;
76393;SDS011;65216;51.090;-115.352;2023-02-11T11:27:00;0.10;;;0.10;;
76393;SDS011;65216;51.090;-115.352;2023-02-11T11:29:38;0.40;;;0.10;;
76393;SDS011;65216;51.090;-115.352;2023-02-11T11:32:27;0.10;;;0.10;;
76393;SDS011;65216;51.090;-115.352;2023-02-11T11:35:04;0.30;;;0.10;;
76393;SDS011;65216;51.090;-115.352;2023-02-11T11:37:53;0.20;;;0.10;;
76393;SDS011;65216;51.090;-115.352;2023-02-11T11:40:29;0.80;;;0.20;;
76393;SDS011;65216;51.090;-115.352;2023-02-11T11:45:42;0.90;;;0.20;;
76393;SDS011;65216;51.090;-115.352;2023-02-11T11:48:42;0.30;;;0.10;;
76393;SDS011;65216;51.090;-115.352;2023-02-11T11:51:15;0.10;;;0.10;;
76393;SDS011;65216;51.090;-115.352;2023-02-11T11:54:04;0.50;;;0.10;;
76393;SDS011;65216;51.090;-115.352;2023-02-11T11:56:50;0.40;;;0.10;;
76393;SDS011;65216;51.090;-115.352;2023-02-11T11:59:22;0.60;;;0.10;;
76393;SDS011;65216;51.090;-115.352;2023-02-11T12:05:02;0.10;;;0.10;;
76393;SDS011;65216;51.090;-115.352;2023-02-11T12:11:09;0.20;;;0.10;;
76393;SDS011;65216;51.090;-115.352;2023-02-11T12:16:35;0.30;;;0.10;;
76393;SDS011;65216;51.090;-115.352;2023-02-11T12:19:38;0.20;;;0.00;;
76393;SDS011;65216;51.090;-115.352;2023-02-11T12:22:42;0.10;;;0.10;;
76393;SDS011;65216;51.090;-115.352;2023-02-11T12:27:56;0.30;;;0.10;;
76393;SDS011;65216;51.090;-115.352;2023-02-11T12:46:44;0.10;;;0.10;;
76393;SDS011;65216;51.090;-115.352;2023-02-11T12:57:56;0.10;;;0.10;;
76393;SDS011;65216;51.090;-115.352;2023-02-11T13:00:47;0.20;;;0.20;;
76393;SDS011;65216;51.090;-115.352;2023-02-11T13:03:38;0.40;;;0.20;;
76393;SDS011;65216;51.090;-115.352;2023-02-11T13:06:24;0.20;;;0.10;;
76393;SDS011;65216;51.090;-115.352;2023-02-11T13:09:01;0.00;;;0.00;;
76393;SDS011;65216;51.090;-115.352;2023-02-11T13:11:40;0.30;;;0.20;;
76393;SDS011;65216;51.090;-115.352;2023-02-11T13:14:43;0.10;;;0.10;;
76393;SDS011;65216;51.090;-115.352;2023-02-11T13:17:24;0.10;;;0.10;;
76393;SDS011;65216;51.090;-115.352;2023-02-11T13:20:05;0.10;;;0.00;;
76393;SDS011;65216;51.090;-115.352;2023-02-11T13:30:21;0.60;;;0.10;;
76393;SDS011;65216;51.090;-115.352;2023-02-11T13:35:29;0.20;;;0.10;;
76393;SDS011;65216;51.090;-115.352;2023-02-11T13:43:43;0.10;;;0.00;;
76393;SDS011;65216;51.090;-115.352;2023-02-11T13:46:22;0.00;;;0.00;;
76393;SDS011;65216;51.090;-115.352;2023-02-11T13:48:52;0.10;;;0.00;;
76393;SDS011;65216;51.090;-115.352;2023-02-11T13:51:38;0.20;;;0.10;;
76393;SDS011;65216;51.090;-115.352;2023-02-11T13:54:19;0.00;;;0.00;;
76393;SDS011;65216;51.090;-115.352;2023-02-11T14:09:08;0.40;;;0.20;;
76393;SDS011;65216;51.090;-115.352;2023-02-11T14:15:16;0.00;;;0.00;;
76393;SDS011;65216;51.090;-115.352;2023-02-11T14:17:47;0.20;;;0.10;;
76393;SDS011;65216;51.090;-115.352;2023-02-11T14:20:40;0.80;;;0.30;;
76393;SDS011;65216;51.090;-115.352;2023-02-11T14:23:20;0.10;;;0.10;;
76393;SDS011;65216;51.090;-115.352;2023-02-11T14:28:53;0.30;;;0.00;;
76393;SDS011;65216;51.090;-115.352;2023-02-11T14:35:42;0.20;;;0.20;;
76393;SDS011;65216;51.090;-115.352;2023-02-11T14:38:27;0.10;;;0.10;;
76393;SDS011;65216;51.090;-115.352;2023-02-11T14:44:03;0.10;;;0.00;;
76393;SDS011;65216;51.090;-115.352;2023-02-11T14:46:43;0.00;;;0.00;;
76393;SDS011;65216;51.090;-115.352;2023-02-11T14:49:30;0.30;;;0.10;;
76393;SDS011;65216;51.090;-115.352;2023-02-11T14:52:12;0.20;;;0.10;;
76393;SDS011;65216;51.090;-115.352;2023-02-11T14:55:27;0.00;;;0.00;;
76393;SDS011;65216;51.090;-115.352;2023-02-11T14:58:26;0.10;;;0.10;;
76393;SDS011;65216;51.090;-115.352;2023-02-11T15:01:05;0.00;;;0.00;;
76393;SDS011;65216;51.090;-115.352;2023-02-11T15:03:49;0.30;;;0.10;;
76393;SDS011;65216;51.090;-115.352;2023-02-11T15:06:31;0.50;;;0.20;;
76393;SDS011;65216;51.090;-115.352;2023-02-11T15:09:22;0.60;;;0.40;;
76393;SDS011;65216;51.090;-115.352;2023-02-11T15:11:53;1.00;;;0.20;;
76393;SDS011;65216;51.090;-115.352;2023-02-11T15:14:26;1.90;;;0.30;;
76393;SDS011;65216;51.090;-115.352;2023-02-11T15:16:58;2.70;;;0.30;;
76393;SDS011;65216;51.090;-115.352;2023-02-11T15:19:35;1.00;;;0.30;;
76393;SDS011;65216;51.090;-115.352;2023-02-11T15:22:19;0.40;;;0.10;;
76393;SDS011;65216;51.090;-115.352;2023-02-11T15:25:12;0.40;;;0.10;;
76393;SDS011;65216;51.090;-115.352;2023-02-11T15:27:44;0.10;;;0.10;;
76393;SDS011;65216;51.090;-115.352;2023-02-11T15:32:58;0.30;;;0.20;;
76393;SDS011;65216;51.090;-115.352;2023-02-11T15:35:38;1.50;;;0.10;;
76393;SDS011;65216;51.090;-115.352;2023-02-11T15:38:06;1.10;;;0.20;;
76393;SDS011;65216;51.090;-115.352;2023-02-11T15:40:36;1.00;;;0.20;;
76393;SDS011;65216;51.090;-115.352;2023-02-11T15:43:05;0.60;;;0.10;;
76393;SDS011;65216;51.090;-115.352;2023-02-11T15:45:59;2.80;;;0.20;;
76393;SDS011;65216;51.090;-115.352;2023-02-11T15:48:48;0.10;;;0.10;;
76393;SDS011;65216;51.090;-115.352;2023-02-11T15:51:33;0.90;;;0.10;;
76393;SDS011;65216;51.090;-115.352;2023-02-11T15:54:07;1.80;;;0.20;;
76393;SDS011;65216;51.090;-115.352;2023-02-11T15:56:51;3.60;;;0.70;;
76393;SDS011;65216;51.090;-115.352;2023-02-11T15:59:38;1.10;;;0.40;;
76393;SDS011;65216;51.090;-115.352;2023-02-11T16:02:24;3.60;;;0.60;;
76393;SDS011;65216;51.090;-115.352;2023-02-11T16:05:04;2.70;;;0.60;;
76393;SDS011;65216;51.090;-115.352;2023-02-11T16:15:45;3.90;;;0.40;;
76393;SDS011;65216;51.090;-115.352;2023-02-11T16:18:29;4.30;;;0.50;;
76393;SDS011;65216;51.090;-115.352;2023-02-11T16:21:00;4.10;;;0.50;;
76393;SDS011;65216;51.090;-115.352;2023-02-11T16:23:35;1.40;;;0.30;;
76393;SDS011;65216;51.090;-115.352;2023-02-11T16:26:39;1.40;;;0.30;;
76393;SDS011;65216;51.090;-115.352;2023-02-11T16:29:22;2.40;;;0.40;;
76393;SDS011;65216;51.090;-115.352;2023-02-11T16:31:53;2.20;;;0.50;;
76393;SDS011;65216;51.090;-115.352;2023-02-11T16:34:34;3.40;;;0.50;;
76393;SDS011;65216;51.090;-115.352;2023-02-11T16:37:04;6.40;;;0.70;;
76393;SDS011;65216;51.090;-115.352;2023-02-11T16:39:39;4.70;;;0.80;;
76393;SDS011;65216;51.090;-115.352;2023-02-11T16:42:07;3.20;;;0.50;;
76393;SDS011;65216;51.090;-115.352;2023-02-11T16:44:35;2.50;;;0.50;;
76393;SDS011;65216;51.090;-115.352;2023-02-11T16:47:04;4.90;;;0.60;;
76393;SDS011;65216;51.090;-115.352;2023-02-11T16:49:40;3.10;;;0.50;;
76393;SDS011;65216;51.090;-115.352;2023-02-11T16:52:14;3.60;;;0.60;;
76393;SDS011;65216;51.090;-115.352;2023-02-11T16:54:43;3.00;;;0.40;;
76393;SDS011;65216;51.090;-115.352;2023-02-11T16:57:20;5.30;;;0.70;;
76393;SDS011;65216;51.090;-115.352;2023-02-11T16:59:49;4.60;;;0.50;;
76393;SDS011;65216;51.090;-115.352;2023-02-11T17:02:32;5.50;;;0.70;;
76393;SDS011;65216;51.090;-115.352;2023-02-11T17:05:05;2.20;;;0.40;;
76393;SDS011;65216;51.090;-115.352;2023-02-11T17:07:46;5.20;;;0.60;;
76393;SDS011;65216;51.090;-115.352;2023-02-11T17:10:20;4.40;;;0.60;;
76393;SDS011;65216;51.090;-115.352;2023-02-11T17:12:50;5.20;;;0.90;;
76393;SDS011;65216;51.090;-115.352;2023-02-11T17:15:18;3.70;;;0.60;;
76393;SDS011;65216;51.090;-115.352;2023-02-11T17:17:47;4.00;;;0.50;;
76393;SDS011;65216;51.090;-115.352;2023-02-11T17:20:14;7.70;;;0.80;;
76393;SDS011;65216;51.090;-115.352;2023-02-11T17:22:42;5.60;;;0.70;;
76393;SDS011;65216;51.090;-115.352;2023-02-11T17:25:09;6.60;;;0.80;;
76393;SDS011;65216;51.090;-115.352;2023-02-11T17:27:40;3.90;;;0.70;;
76393;SDS011;65216;51.090;-115.352;2023-02-11T17:30:15;5.40;;;0.80;;